Time;durP1;ratioP1;P1;durP2;ratioP2;P2;SDS_P1;SDS_P2;PMS_P1;PMS_P2;Temp;Humidity;BMP_temperature;BMP_pressure;BME280_temperature;BME280_humidity;BME280_pressure;Samples;Min_cycle;Max_cycle;Signal;HPM_P1;HPM_P2
2022/06/16 00:00:07;;;;;;;3.83;2.70;;;16.10;99.90;;;;;;5093470;28;20217;-70
2022/06/16 00:02:40;;;;;;;5.10;3.00;;;16.10;99.90;;;;;;5093871;28;20210;-70
2022/06/16 00:05:09;;;;;;;4.30;2.77;;;16.10;99.90;;;;;;5092685;28;20195;-70
2022/06/16 00:07:36;;;;;;;3.30;2.33;;;16.10;99.90;;;;;;5092119;28;20228;-70
2022/06/16 00:10:04;;;;;;;3.17;2.40;;;16.00;99.90;;;;;;5091959;28;20200;-70
2022/06/16 00:12:31;;;;;;;3.87;2.33;;;15.90;99.90;;;;;;5093538;28;20714;-72
2022/06/16 00:14:58;;;;;;;4.97;2.50;;;15.90;99.90;;;;;;5093647;28;20245;-73
2022/06/16 00:17:26;;;;;;;3.00;2.40;;;15.90;99.90;;;;;;5093150;28;20258;-72
2022/06/16 00:19:53;;;;;;;5.83;2.43;;;15.80;99.90;;;;;;5093518;28;20290;-71
2022/06/16 00:22:20;;;;;;;5.13;2.57;;;15.80;99.90;;;;;;5092892;28;20713;-71
2022/06/16 00:24:47;;;;;;;5.37;2.80;;;15.80;99.90;;;;;;5092846;28;20249;-71
2022/06/16 00:27:14;;;;;;;3.33;2.60;;;15.70;99.90;;;;;;5092724;28;20204;-70
2022/06/16 00:29:41;;;;;;;5.37;2.93;;;15.70;99.90;;;;;;5093056;28;20203;-73
2022/06/16 00:32:08;;;;;;;3.73;2.80;;;15.70;99.90;;;;;;5093248;28;20204;-72
2022/06/16 00:34:36;;;;;;;3.97;2.60;;;15.70;99.90;;;;;;5092972;28;20224;-72
2022/06/16 00:37:04;;;;;;;4.10;2.97;;;15.70;99.90;;;;;;5093162;28;20618;-72
2022/06/16 00:39:30;;;;;;;3.30;2.63;;;15.70;99.90;;;;;;5093081;28;20208;-72
2022/06/16 00:42:07;;;;;;;3.97;2.80;;;15.70;99.90;;;;;;5092039;28;20200;-71
2022/06/16 00:44:42;;;;;;;4.27;2.77;;;15.60;99.90;;;;;;5092924;28;20279;-71
2022/06/16 00:47:09;;;;;;;4.97;2.63;;;15.60;99.90;;;;;;5092183;28;20302;-72
2022/06/16 00:49:42;;;;;;;3.20;2.40;;;15.60;99.90;;;;;;5092977;28;20291;-71
2022/06/16 00:52:12;;;;;;;7.13;2.80;;;15.50;99.90;;;;;;5092641;28;20188;-70
2022/06/16 00:54:42;;;;;;;4.37;2.40;;;15.50;99.90;;;;;;5092955;28;20188;-71
2022/06/16 00:57:13;;;;;;;4.37;2.20;;;15.50;99.90;;;;;;5091542;28;20195;-70
2022/06/16 00:59:41;;;;;;;5.23;3.10;;;15.50;99.90;;;;;;5091952;28;20228;-71
2022/06/16 01:02:09;;;;;;;2.87;2.30;;;15.50;99.90;;;;;;5092249;28;20254;-72
2022/06/16 01:04:52;;;;;;;3.93;2.37;;;15.50;99.90;;;;;;5092670;28;20225;-72
2022/06/16 01:07:23;;;;;;;4.77;2.13;;;15.50;99.90;;;;;;5092612;28;20188;-75
2022/06/16 01:09:52;;;;;;;4.33;2.60;;;15.50;99.90;;;;;;5092499;28;20784;-71
2022/06/16 01:15:33;;;;;;;3.87;2.50;;;15.40;99.90;;;;;;5091716;28;20233;-72
2022/06/16 01:18:12;;;;;;;4.57;2.30;;;15.40;99.90;;;;;;5091498;28;20286;-72
2022/06/16 01:20:47;;;;;;;6.43;2.63;;;15.40;99.90;;;;;;5071583;28;20189;-71
2022/06/16 01:23:52;;;;;;;5.23;2.63;;;15.40;99.90;;;;;;5071303;28;20256;-71
2022/06/16 01:27:02;;;;;;;2.70;2.40;;;15.30;99.90;;;;;;5071754;28;20201;-71
2022/06/16 01:29:38;;;;;;;3.90;2.60;;;15.20;99.90;;;;;;5072037;28;20296;-70
2022/06/16 01:32:13;;;;;;;4.07;2.90;;;15.10;99.90;;;;;;5071298;28;20315;-71
2022/06/16 01:34:48;;;;;;;3.50;2.67;;;15.10;99.90;;;;;;5088270;28;20244;-71
2022/06/16 01:37:21;;;;;;;3.80;2.80;;;15.10;99.90;;;;;;5091437;28;20279;-72
2022/06/16 01:39:55;;;;;;;4.40;2.87;;;15.00;99.90;;;;;;5091343;28;20188;-72
2022/06/16 01:42:26;;;;;;;4.77;2.90;;;15.00;99.90;;;;;;5091849;28;20188;-71
2022/06/16 01:44:58;;;;;;;3.13;2.30;;;15.00;99.90;;;;;;5091132;28;20188;-72
2022/06/16 01:47:30;;;;;;;4.23;2.80;;;15.00;99.90;;;;;;5091064;28;20284;-70
2022/06/16 01:50:02;;;;;;;3.50;2.67;;;15.10;99.90;;;;;;5070794;28;20204;-71
2022/06/16 01:52:35;;;;;;;4.17;2.70;;;15.00;99.90;;;;;;5071499;28;20702;-71
2022/06/16 01:55:06;;;;;;;4.27;2.37;;;15.00;99.90;;;;;;5085187;28;20196;-71
2022/06/16 01:57:39;;;;;;;3.30;2.50;;;15.00;99.90;;;;;;5091426;28;20264;-71
2022/06/16 02:00:11;;;;;;;4.00;2.60;;;15.10;99.90;;;;;;5094427;28;20192;-71
2022/06/16 02:02:40;;;;;;;4.00;2.90;;;15.10;99.90;;;;;;5095177;28;20192;-71
2022/06/16 02:05:10;;;;;;;3.63;2.60;;;15.20;99.90;;;;;;5095196;28;20210;-71
2022/06/16 02:07:43;;;;;;;5.13;2.70;;;15.10;99.90;;;;;;5095924;28;20320;-71
2022/06/16 02:10:15;;;;;;;4.80;2.67;;;15.10;99.90;;;;;;5095140;28;20710;-71
2022/06/16 02:12:57;;;;;;;4.20;2.90;;;15.20;99.90;;;;;;5095399;28;20188;-71
2022/06/16 02:15:37;;;;;;;3.37;2.60;;;15.30;99.90;;;;;;5093795;28;20236;-71
2022/06/16 02:18:08;;;;;;;7.57;2.93;;;15.40;99.90;;;;;;5095145;28;20189;-70
2022/06/16 02:20:44;;;;;;;4.10;2.40;;;15.50;99.90;;;;;;5095119;28;20224;-71
2022/06/16 02:23:11;;;;;;;5.53;3.27;;;15.60;99.90;;;;;;5093102;28;20275;-71
2022/06/16 02:25:37;;;;;;;5.03;2.80;;;15.60;99.90;;;;;;5091477;28;20234;-71
2022/06/16 02:28:05;;;;;;;5.00;2.60;;;15.70;99.90;;;;;;5093161;28;20215;-71
2022/06/16 02:30:39;;;;;;;3.97;2.70;;;15.70;99.90;;;;;;5095238;28;20262;-71
2022/06/16 02:33:13;;;;;;;4.40;2.50;;;15.80;99.90;;;;;;5095078;28;20627;-72
2022/06/16 02:35:50;;;;;;;4.97;2.90;;;15.90;99.90;;;;;;5095296;28;20649;-71
2022/06/16 02:38:34;;;;;;;5.67;2.93;;;16.00;99.90;;;;;;5094883;28;20582;-72
2022/06/16 02:41:14;;;;;;;6.17;2.90;;;16.10;99.90;;;;;;5094632;28;20198;-71
2022/06/16 02:44:01;;;;;;;5.90;2.80;;;16.20;99.90;;;;;;5094693;28;20184;-72
2022/06/16 02:46:46;;;;;;;4.13;2.90;;;16.20;99.90;;;;;;5074733;28;20630;-72
2022/06/16 02:49:22;;;;;;;5.63;3.03;;;16.30;99.90;;;;;;5074601;28;20777;-71
2022/06/16 02:52:02;;;;;;;5.43;3.10;;;16.40;99.90;;;;;;5073916;28;20284;-71
2022/06/16 02:54:34;;;;;;;8.17;2.67;;;16.30;99.90;;;;;;5074590;28;20642;-71
2022/06/16 02:57:08;;;;;;;5.07;2.80;;;16.30;99.90;;;;;;5073859;28;20235;-70
2022/06/16 02:59:42;;;;;;;5.13;3.03;;;16.40;99.90;;;;;;5074041;28;20775;-71
2022/06/16 03:02:13;;;;;;;3.90;2.80;;;16.40;99.90;;;;;;5073981;28;20193;-71
2022/06/16 03:04:41;;;;;;;5.57;3.23;;;16.40;99.90;;;;;;5073795;28;20200;-70
2022/06/16 03:07:11;;;;;;;7.70;4.10;;;16.40;99.90;;;;;;5074421;28;20287;-72
2022/06/16 03:09:38;;;;;;;8.00;3.73;;;16.40;99.90;;;;;;5073587;28;20706;-71
2022/06/16 03:12:06;;;;;;;5.33;2.97;;;16.40;99.90;;;;;;5073980;28;20247;-71
2022/06/16 03:14:33;;;;;;;6.70;3.30;;;16.40;99.90;;;;;;5073945;28;20375;-72
2022/06/16 03:17:01;;;;;;;6.37;3.20;;;16.40;99.90;;;;;;5073977;28;20262;-71
2022/06/16 03:19:29;;;;;;;4.97;3.07;;;16.40;99.90;;;;;;5073938;28;20209;-72
2022/06/16 03:21:57;;;;;;;7.20;3.60;;;16.40;99.90;;;;;;5085116;28;20222;-72
2022/06/16 03:24:24;;;;;;;6.57;3.10;;;16.50;99.90;;;;;;5093896;28;20311;-72
2022/06/16 03:26:51;;;;;;;6.63;3.10;;;16.50;99.90;;;;;;5094154;28;20204;-72
2022/06/16 03:29:19;;;;;;;7.30;3.87;;;16.50;99.90;;;;;;5094276;28;20234;-72
2022/06/16 03:31:46;;;;;;;7.77;3.43;;;16.50;99.90;;;;;;5093556;28;20291;-72
2022/06/16 03:34:13;;;;;;;6.63;3.67;;;16.60;99.90;;;;;;5094067;28;20386;-72
2022/06/16 03:36:41;;;;;;;5.47;3.37;;;16.60;99.90;;;;;;5093869;28;20307;-71
2022/06/16 03:39:09;;;;;;;5.53;3.30;;;16.70;99.90;;;;;;5093807;28;20262;-71
2022/06/16 03:41:36;;;;;;;5.70;3.13;;;16.60;99.90;;;;;;5093839;28;20570;-71
2022/06/16 03:44:03;;;;;;;5.23;3.50;;;16.70;99.90;;;;;;5093858;28;20612;-71
2022/06/16 03:46:30;;;;;;;6.70;3.80;;;16.70;99.90;;;;;;5093992;28;20231;-73
2022/06/16 03:48:57;;;;;;;7.27;4.10;;;16.80;99.90;;;;;;5093620;28;20331;-71
2022/06/16 03:51:24;;;;;;;6.37;3.73;;;16.80;99.90;;;;;;5093859;28;20257;-71
2022/06/16 03:53:52;;;;;;;8.37;3.60;;;16.90;99.90;;;;;;5093262;28;20196;-70
2022/06/16 03:56:19;;;;;;;6.30;3.80;;;16.90;99.90;;;;;;5093628;28;20498;-74
2022/06/16 03:58:46;;;;;;;4.63;3.23;;;17.00;99.90;;;;;;5093381;28;20324;-71
2022/06/16 04:01:13;;;;;;;5.93;3.50;;;17.00;99.90;;;;;;5093474;28;20266;-72
2022/06/16 04:06:24;;;;;;;6.27;3.40;;;17.10;99.90;;;;;;5093449;28;20191;-72
2022/06/16 04:08:52;;;;;;;5.70;3.90;;;17.10;99.90;;;;;;5092786;28;20224;-71
2022/06/16 04:11:28;;;;;;;6.13;3.40;;;17.10;99.90;;;;;;5092773;28;20200;-72
2022/06/16 04:13:57;;;;;;;6.77;3.60;;;17.10;99.90;;;;;;5092170;28;20287;-70
2022/06/16 04:16:24;;;;;;;10.50;4.00;;;17.10;99.90;;;;;;5092867;28;20196;-73
2022/06/16 04:18:51;;;;;;;14.20;3.47;;;17.20;99.90;;;;;;5092481;28;20595;-75
2022/06/16 04:21:18;;;;;;;6.07;3.10;;;17.30;99.90;;;;;;5092366;28;20224;-72
2022/06/16 04:23:45;;;;;;;5.67;3.20;;;17.30;99.90;;;;;;5092571;28;20201;-71
2022/06/16 04:26:14;;;;;;;4.87;3.40;;;17.40;99.90;;;;;;5092925;28;20198;-71
2022/06/16 04:28:41;;;;;;;6.20;3.40;;;17.50;99.90;;;;;;5093013;28;20223;-75
2022/06/16 04:31:08;;;;;;;5.83;3.50;;;17.50;99.90;;;;;;5092782;28;20289;-73
2022/06/16 04:33:35;;;;;;;6.53;3.30;;;17.50;99.90;;;;;;5092712;28;20294;-73
2022/06/16 04:36:02;;;;;;;12.57;3.60;;;17.40;99.90;;;;;;5093005;28;20695;-72
2022/06/16 04:38:29;;;;;;;4.93;3.20;;;17.50;99.90;;;;;;5092650;28;20292;-74
2022/06/16 04:40:58;;;;;;;6.00;3.33;;;17.50;99.90;;;;;;5092780;28;20234;-73
2022/06/16 04:43:26;;;;;;;6.03;3.20;;;17.60;99.90;;;;;;5092748;28;20201;-72
2022/06/16 04:45:55;;;;;;;5.97;3.27;;;17.50;99.90;;;;;;5092549;28;20208;-75
2022/06/16 04:48:21;;;;;;;5.03;3.17;;;17.60;99.90;;;;;;5093391;28;20689;-72
2022/06/16 04:50:48;;;;;;;4.70;3.10;;;17.60;99.90;;;;;;5093049;28;20217;-73
2022/06/16 04:53:15;;;;;;;5.07;3.13;;;17.60;99.90;;;;;;5092485;28;20300;-72
2022/06/16 04:55:42;;;;;;;4.53;2.80;;;17.60;99.90;;;;;;5092567;28;20204;-75
2022/06/16 04:58:09;;;;;;;5.23;3.17;;;17.70;99.90;;;;;;5092749;28;20799;-74
2022/06/16 05:00:37;;;;;;;5.97;3.00;;;17.70;99.90;;;;;;5091937;28;20300;-73
2022/06/16 05:03:04;;;;;;;4.97;2.83;;;17.80;99.90;;;;;;5092325;28;20219;-72
2022/06/16 05:05:31;;;;;;;4.23;2.80;;;17.80;99.90;;;;;;5092297;28;20236;-72
2022/06/16 05:07:58;;;;;;;6.90;3.20;;;17.90;99.90;;;;;;5092273;28;20292;-72
2022/06/16 05:10:25;;;;;;;5.17;3.70;;;17.90;99.90;;;;;;5091679;28;20228;-72
2022/06/16 05:12:52;;;;;;;6.60;3.10;;;18.00;99.90;;;;;;5092204;28;20299;-74
2022/06/16 05:15:19;;;;;;;10.57;3.17;;;18.10;99.90;;;;;;5092297;28;20202;-72
2022/06/16 05:17:47;;;;;;;5.23;2.90;;;18.20;99.90;;;;;;5091641;28;20200;-73
2022/06/16 05:20:14;;;;;;;4.17;2.77;;;18.30;99.90;;;;;;5092098;28;20291;-72
2022/06/16 05:22:41;;;;;;;4.70;2.63;;;18.40;99.90;;;;;;5092226;28;20306;-73
2022/06/16 05:25:09;;;;;;;4.30;2.40;;;18.40;99.90;;;;;;5092407;28;20647;-72
2022/06/16 05:27:36;;;;;;;5.40;2.77;;;18.50;99.90;;;;;;5090912;28;20229;-72
2022/06/16 05:30:04;;;;;;;4.87;2.70;;;18.50;99.90;;;;;;5087949;28;20214;-73
2022/06/16 05:32:31;;;;;;;4.80;2.90;;;18.60;99.90;;;;;;5090559;28;20256;-73
2022/06/16 05:34:59;;;;;;;6.80;2.73;;;18.60;99.90;;;;;;5090778;28;20846;-70
2022/06/16 05:37:26;;;;;;;5.13;2.90;;;18.70;99.90;;;;;;5090441;28;20676;-72
2022/06/16 05:39:53;;;;;;;5.07;3.70;;;18.80;99.90;;;;;;5088244;28;20289;-71
2022/06/16 05:42:21;;;;;;;2.70;2.20;;;18.90;99.90;;;;;;5090490;28;20192;-71
2022/06/16 05:44:48;;;;;;;6.37;2.77;;;19.10;99.90;;;;;;5088971;28;20277;-75
2022/06/16 05:47:15;;;;;;;3.07;2.33;;;19.20;99.90;;;;;;5091185;28;20195;-76
2022/06/16 05:49:42;;;;;;;4.10;2.07;;;19.30;99.90;;;;;;5090897;28;20209;-72
2022/06/16 05:52:13;;;;;;;4.73;2.30;;;19.40;99.90;;;;;;5090535;28;20234;-73
2022/06/16 05:54:41;;;;;;;4.83;2.50;;;19.30;99.90;;;;;;5088818;28;20690;-72
2022/06/16 05:57:09;;;;;;;3.80;2.20;;;19.40;99.90;;;;;;5090869;28;20194;-72
2022/06/16 05:59:36;;;;;;;3.40;2.00;;;19.40;99.90;;;;;;5091295;28;20227;-73
2022/06/16 06:02:03;;;;;;;4.23;2.40;;;19.40;99.90;;;;;;5088991;28;20192;-74
2022/06/16 06:04:31;;;;;;;4.03;2.40;;;19.60;99.90;;;;;;5091645;28;20192;-74
2022/06/16 06:06:58;;;;;;;5.83;2.73;;;19.70;99.90;;;;;;5091853;28;20208;-74
2022/06/16 06:18:16;;;;;;;5.03;2.40;;;20.10;99.90;;;;;;5087131;28;20219;-76
2022/06/16 06:20:43;;;;;;;4.93;2.20;;;20.20;99.90;;;;;;5090672;28;20626;-74
2022/06/16 06:23:11;;;;;;;3.90;2.30;;;20.20;99.90;;;;;;5089582;28;20267;-72
2022/06/16 06:25:39;;;;;;;3.20;1.97;;;20.20;99.90;;;;;;5091343;28;20216;-73
2022/06/16 06:28:07;;;;;;;4.30;1.90;;;20.30;99.90;;;;;;5088784;28;20219;-72
2022/06/16 06:30:34;;;;;;;4.67;2.03;;;20.40;99.90;;;;;;5090269;28;20280;-73
2022/06/16 06:33:04;;;;;;;3.63;2.30;;;20.40;99.90;;;;;;5090903;28;20605;-73
2022/06/16 06:35:31;;;;;;;6.00;2.60;;;20.50;99.90;;;;;;5091996;28;20304;-72
2022/06/16 06:37:58;;;;;;;2.93;2.13;;;20.50;99.90;;;;;;5091136;28;20587;-71
2022/06/16 06:40:28;;;;;;;3.67;2.27;;;20.60;99.90;;;;;;5090439;28;20279;-72
2022/06/16 06:42:56;;;;;;;2.70;2.13;;;20.70;99.90;;;;;;5090904;28;20757;-73
2022/06/16 06:45:24;;;;;;;3.93;2.00;;;20.60;99.90;;;;;;5092585;28;20283;-72
2022/06/16 06:47:51;;;;;;;4.23;2.07;;;20.60;99.90;;;;;;5094882;28;20202;-75
2022/06/16 06:50:21;;;;;;;5.00;2.00;;;20.70;99.90;;;;;;5094818;28;20227;-73
2022/06/16 06:52:48;;;;;;;6.13;2.10;;;20.70;99.90;;;;;;5095031;28;20201;-73
2022/06/16 06:55:15;;;;;;;3.60;1.90;;;20.80;99.90;;;;;;5095011;28;20214;-72
2022/06/16 06:57:42;;;;;;;3.37;2.07;;;20.80;99.90;;;;;;5094769;28;20214;-73
2022/06/16 07:00:14;;;;;;;2.43;1.87;;;20.90;99.80;;;;;;5094342;28;20186;-73
2022/06/16 07:02:41;;;;;;;2.60;1.97;;;20.90;99.80;;;;;;5094570;28;20193;-72
2022/06/16 07:05:09;;;;;;;2.63;1.73;;;20.90;99.10;;;;;;5094372;28;20862;-72
2022/06/16 07:07:37;;;;;;;2.17;1.40;;;21.00;99.40;;;;;;5094499;28;20370;-74
2022/06/16 07:10:06;;;;;;;2.27;1.80;;;21.10;99.60;;;;;;5094503;28;20234;-71
2022/06/16 07:12:34;;;;;;;3.10;1.90;;;21.20;99.00;;;;;;5094283;28;20709;-71
2022/06/16 07:15:01;;;;;;;9.93;2.17;;;21.30;98.90;;;;;;5094347;28;20257;-71
2022/06/16 07:17:30;;;;;;;2.63;1.80;;;21.40;99.00;;;;;;5094284;28;20746;-72
2022/06/16 07:19:57;;;;;;;2.90;1.87;;;21.40;98.10;;;;;;5094175;28;20295;-74
2022/06/16 07:22:24;;;;;;;2.00;1.50;;;21.40;98.00;;;;;;5093791;28;20203;-71
2022/06/16 07:24:50;;;;;;;5.13;1.97;;;21.40;97.20;;;;;;5094241;28;20287;-73
2022/06/16 07:27:18;;;;;;;4.13;1.80;;;21.30;97.20;;;;;;5094186;28;20257;-73
2022/06/16 07:29:46;;;;;;;3.43;2.07;;;21.40;97.60;;;;;;5093728;28;20246;-74
2022/06/16 07:32:14;;;;;;;3.50;1.40;;;21.50;97.10;;;;;;5093661;28;20200;-77
2022/06/16 07:34:42;;;;;;;4.63;1.80;;;21.60;96.20;;;;;;5093339;28;20211;-77
2022/06/16 07:37:09;;;;;;;5.03;2.40;;;21.60;95.20;;;;;;5094297;28;20251;-77
2022/06/16 07:39:36;;;;;;;2.77;1.90;;;21.60;95.80;;;;;;5094049;28;20283;-77
2022/06/16 07:42:04;;;;;;;3.70;1.80;;;21.70;96.20;;;;;;5094312;28;20208;-76
2022/06/16 07:44:31;;;;;;;3.23;1.80;;;21.80;96.20;;;;;;5093190;28;20216;-77
2022/06/16 07:46:58;;;;;;;2.10;1.50;;;21.90;94.80;;;;;;5093786;28;20228;-75
2022/06/16 07:49:27;;;;;;;2.63;1.50;;;22.00;94.40;;;;;;5093540;28;20210;-76
2022/06/16 07:51:57;;;;;;;4.67;1.70;;;22.10;94.20;;;;;;5093118;28;20200;-73
2022/06/16 07:54:25;;;;;;;4.27;1.70;;;22.30;94.60;;;;;;5093478;28;20192;-74
2022/06/16 07:56:52;;;;;;;9.03;1.90;;;22.30;93.90;;;;;;5093640;28;20722;-73
2022/06/16 07:59:19;;;;;;;2.30;1.50;;;22.40;94.00;;;;;;5093593;28;20712;-77
2022/06/16 08:01:46;;;;;;;2.47;1.50;;;22.40;93.80;;;;;;5093265;28;20285;-77
2022/06/16 08:04:13;;;;;;;4.10;1.53;;;22.50;93.30;;;;;;5092610;28;20523;-76
2022/06/16 08:06:41;;;;;;;2.80;1.60;;;22.50;93.00;;;;;;5093063;28;20211;-72
2022/06/16 08:09:10;;;;;;;2.87;1.70;;;22.50;92.50;;;;;;5092456;28;20554;-76
2022/06/16 08:14:22;;;;;;;4.77;2.00;;;22.50;92.90;;;;;;5081685;28;20210;-78
2022/06/16 08:16:49;;;;;;;2.60;1.57;;;22.50;92.70;;;;;;5092529;28;20196;-79
2022/06/16 08:19:16;;;;;;;2.13;1.40;;;22.50;92.60;;;;;;5091647;28;20219;-74
2022/06/16 08:21:43;;;;;;;4.67;1.50;;;22.60;92.40;;;;;;5093404;28;20200;-75
2022/06/16 08:24:12;;;;;;;9.13;2.13;;;22.60;92.40;;;;;;5092235;28;20196;-74
2022/06/16 08:26:39;;;;;;;2.63;1.50;;;22.50;91.60;;;;;;5073144;28;20290;-77
2022/06/16 08:29:09;;;;;;;3.07;1.70;;;22.50;92.20;;;;;;5076785;28;20201;-76
2022/06/16 08:31:36;;;;;;;2.60;1.63;;;22.60;92.40;;;;;;5085854;28;20230;-77
2022/06/16 08:34:04;;;;;;;3.13;1.50;;;22.50;92.70;;;;;;5092478;28;20200;-77
2022/06/16 08:36:31;;;;;;;5.07;1.63;;;22.50;92.50;;;;;;5082512;28;20678;-76
2022/06/16 08:38:58;;;;;;;3.83;1.80;;;22.60;92.90;;;;;;5073400;28;20667;-77
2022/06/16 08:41:31;;;;;;;5.07;2.20;;;22.70;92.40;;;;;;5092909;28;20192;-76
2022/06/16 08:44:08;;;;;;;3.63;1.40;;;22.70;92.70;;;;;;5073580;28;20287;-76
2022/06/16 08:46:39;;;;;;;3.37;1.53;;;22.70;92.20;;;;;;5072744;28;20185;-76
2022/06/16 08:49:18;;;;;;;3.63;1.23;;;22.70;91.60;;;;;;5072637;28;20549;-74
2022/06/16 08:51:58;;;;;;;1.43;1.30;;;22.60;91.60;;;;;;5072129;28;20204;-75
2022/06/16 08:54:37;;;;;;;2.57;1.57;;;22.70;91.40;;;;;;5072202;28;20196;-73
2022/06/16 08:57:13;;;;;;;2.03;1.50;;;22.70;91.20;;;;;;5072211;28;20525;-73
2022/06/16 08:59:46;;;;;;;2.90;1.50;;;22.70;91.30;;;;;;5072200;28;20718;-75
2022/06/16 09:02:20;;;;;;;3.00;1.47;;;22.80;91.60;;;;;;5072397;28;20201;-74
2022/06/16 09:04:51;;;;;;;1.87;1.50;;;22.90;91.60;;;;;;5072842;28;20216;-75
2022/06/16 09:07:34;;;;;;;2.27;1.50;;;23.00;90.80;;;;;;5072638;28;20198;-74
2022/06/16 09:10:17;;;;;;;1.80;1.40;;;23.00;90.90;;;;;;5071568;28;20232;-76
2022/06/16 09:13:25;;;;;;;3.47;1.60;;;23.10;90.80;;;;;;5088859;28;20561;-73
2022/06/16 09:16:02;;;;;;;1.97;1.57;;;23.30;91.60;;;;;;5091958;28;20315;-78
2022/06/16 09:19:02;;;;;;;5.87;1.57;;;23.40;91.30;;;;;;5093520;28;20627;-78
2022/06/16 09:21:40;;;;;;;2.03;1.40;;;23.60;91.00;;;;;;5089603;28;20696;-78
2022/06/16 09:24:27;;;;;;;2.07;1.40;;;23.90;91.50;;;;;;5087260;28;20589;-76
2022/06/16 09:26:59;;;;;;;3.10;1.30;;;23.90;84.50;;;;;;5092161;28;20197;-74
2022/06/16 09:29:32;;;;;;;2.90;1.40;;;24.00;86.50;;;;;;5091412;28;20296;-77
2022/06/16 09:32:05;;;;;;;3.43;1.47;;;24.20;84.70;;;;;;5091315;28;20214;-72
2022/06/16 09:34:40;;;;;;;3.57;1.40;;;24.30;83.40;;;;;;5072772;28;20364;-78
2022/06/16 09:37:12;;;;;;;2.30;1.40;;;24.50;84.60;;;;;;5082374;28;20197;-75
2022/06/16 09:39:43;;;;;;;6.67;1.67;;;24.60;81.00;;;;;;5093283;28;20273;-74
2022/06/16 09:45:05;;;;;;;3.77;1.70;;;24.60;81.50;;;;;;5090308;28;20197;-75
2022/06/16 09:47:39;;;;;;;2.70;1.87;;;24.70;84.20;;;;;;5091618;28;20192;-77
2022/06/16 09:50:12;;;;;;;2.83;1.73;;;24.80;85.20;;;;;;5091562;28;20214;-75
2022/06/16 09:52:47;;;;;;;6.00;1.70;;;24.90;85.10;;;;;;5091607;28;20194;-78
2022/06/16 09:55:20;;;;;;;1.97;1.47;;;24.90;84.90;;;;;;5091699;28;20190;-79
2022/06/16 09:57:50;;;;;;;3.20;1.40;;;24.90;84.70;;;;;;5089828;28;20225;-74
2022/06/16 10:00:22;;;;;;;4.13;1.50;;;25.00;85.00;;;;;;5091412;28;20206;-75
2022/06/16 10:02:52;;;;;;;2.70;1.80;;;25.00;83.50;;;;;;5091762;28;20282;-75
2022/06/16 10:05:28;;;;;;;3.10;1.73;;;24.90;84.10;;;;;;5091125;28;20685;-73
2022/06/16 10:08:03;;;;;;;1.77;1.50;;;24.90;84.10;;;;;;5088959;28;20232;-74
2022/06/16 10:10:38;;;;;;;2.30;1.40;;;24.80;83.80;;;;;;5091799;28;20235;-75
2022/06/16 10:13:14;;;;;;;2.00;1.20;;;24.70;82.90;;;;;;5091535;28;20204;-76
2022/06/16 10:15:46;;;;;;;1.73;1.27;;;24.50;79.30;;;;;;5091008;28;20204;-75
2022/06/16 10:18:17;;;;;;;3.43;1.30;;;24.20;81.20;;;;;;5091833;28;20196;-80
2022/06/16 10:20:45;;;;;;;4.27;1.50;;;24.10;80.90;;;;;;5094220;28;20639;-70
2022/06/16 10:23:17;;;;;;;2.20;1.40;;;23.90;81.60;;;;;;5093173;28;20566;-73
2022/06/16 10:25:49;;;;;;;1.30;1.20;;;23.90;80.90;;;;;;5093313;28;20204;-70
2022/06/16 10:28:27;;;;;;;2.37;1.50;;;23.80;80.90;;;;;;5091555;28;20238;-75
2022/06/16 10:30:56;;;;;;;7.10;1.50;;;23.80;81.40;;;;;;5094239;28;20306;-77
2022/06/16 10:33:26;;;;;;;5.00;1.80;;;23.80;82.00;;;;;;5096071;28;20210;-75
2022/06/16 10:35:56;;;;;;;3.20;1.40;;;23.90;82.50;;;;;;5093648;28;20635;-75
2022/06/16 10:38:32;;;;;;;2.83;1.23;;;24.10;80.70;;;;;;5091625;28;20585;-75
2022/06/16 10:41:01;;;;;;;3.97;1.50;;;24.10;80.90;;;;;;5094258;28;20748;-71
2022/06/16 10:43:30;;;;;;;1.60;1.40;;;24.10;80.90;;;;;;5091441;28;20254;-77
2022/06/16 10:46:09;;;;;;;3.57;1.30;;;24.30;80.50;;;;;;5093547;28;20690;-73
2022/06/16 10:48:39;;;;;;;1.30;1.20;;;24.50;81.20;;;;;;5094265;28;20194;-74
2022/06/16 10:51:12;;;;;;;2.53;1.50;;;24.70;82.20;;;;;;5093922;28;20566;-75
2022/06/16 10:53:42;;;;;;;3.07;1.20;;;24.80;80.10;;;;;;5094436;28;20200;-76
2022/06/16 10:56:16;;;;;;;2.37;1.27;;;24.90;80.00;;;;;;5094483;28;20199;-74
2022/06/16 10:58:49;;;;;;;2.60;1.20;;;25.00;77.40;;;;;;5093746;28;20606;-74
2022/06/16 11:01:21;;;;;;;1.63;1.30;;;25.00;75.40;;;;;;5093781;28;20189;-74
2022/06/16 11:03:51;;;;;;;2.43;1.10;;;25.10;75.60;;;;;;5093501;28;20206;-75
2022/06/16 11:06:23;;;;;;;3.57;1.53;;;25.20;76.40;;;;;;5093454;28;20202;-75
2022/06/16 11:08:56;;;;;;;3.23;1.40;;;25.30;77.30;;;;;;5094214;28;20597;-73
2022/06/16 11:11:39;;;;;;;3.50;1.50;;;25.50;77.50;;;;;;5091842;28;20215;-77
2022/06/16 11:14:12;;;;;;;2.60;1.50;;;25.70;75.30;;;;;;5092036;28;20222;-76
2022/06/16 11:16:48;;;;;;;3.73;1.47;;;25.80;77.30;;;;;;5090029;28;20204;-78
2022/06/16 11:19:25;;;;;;;2.10;1.20;;;25.80;76.10;;;;;;5091226;28;20249;-77
2022/06/16 11:21:53;;;;;;;2.90;1.40;;;25.50;74.60;;;;;;5091412;28;20196;-76
2022/06/16 11:24:28;;;;;;;2.40;1.53;;;25.30;75.50;;;;;;5092875;28;20209;-77
2022/06/16 11:27:05;;;;;;;5.40;1.50;;;25.40;77.40;;;;;;5092785;28;20197;-77
2022/06/16 11:29:35;;;;;;;1.90;1.50;;;25.50;76.80;;;;;;5093117;28;20201;-77
2022/06/16 11:32:07;;;;;;;1.63;1.33;;;25.60;77.20;;;;;;5091897;28;20227;-76
2022/06/16 11:34:35;;;;;;;2.22;1.30;;;25.70;77.10;;;;;;5093019;28;20196;-75
2022/06/16 11:37:38;;;;;;;2.03;1.33;;;25.80;77.10;;;;;;5094954;28;20210;-77
2022/06/16 11:40:24;;;;;;;2.17;1.50;;;25.80;76.10;;;;;;5093098;28;20204;-78
2022/06/16 11:43:03;;;;;;;2.10;1.33;;;25.80;73.70;;;;;;5094591;28;20637;-77
2022/06/16 11:45:36;;;;;;;3.67;1.30;;;25.80;73.20;;;;;;5093610;28;20188;-79
2022/06/16 11:48:16;;;;;;;3.50;1.43;;;25.90;73.40;;;;;;5093115;28;20604;-78
2022/06/16 11:50:52;;;;;;;1.45;1.20;;;25.90;71.30;;;;;;5089439;28;20295;-77
2022/06/16 11:53:33;;;;;;;2.95;1.30;;;25.80;71.40;;;;;;5087478;28;20254;-76
2022/06/16 11:56:04;;;;;;;2.97;1.48;;;25.80;71.90;;;;;;5092054;28;20191;-79
2022/06/16 11:58:50;;;;;;;1.50;1.05;;;25.70;69.00;;;;;;5088560;28;20234;-80
2022/06/16 12:01:25;;;;;;;2.90;1.40;;;25.60;67.60;;;;;;5090578;28;20185;-78
2022/06/16 12:04:34;;;;;;;2.83;1.20;;;25.60;67.50;;;;;;5090644;28;20194;-78
2022/06/16 12:07:23;;;;;;;2.87;1.50;;;25.50;67.30;;;;;;5091890;28;20220;-78
2022/06/16 12:09:59;;;;;;;6.33;1.60;;;25.50;66.90;;;;;;5090076;28;20682;-76
2022/06/16 12:12:30;;;;;;;2.70;1.40;;;25.50;68.60;;;;;;5087768;28;20256;-76
2022/06/16 12:15:01;;;;;;;2.57;1.43;;;25.70;71.70;;;;;;5092181;28;20190;-78
2022/06/16 12:17:36;;;;;;;2.40;1.40;;;25.70;73.60;;;;;;5090442;28;20194;-77
2022/06/16 12:20:11;;;;;;;1.58;1.33;;;25.70;71.70;;;;;;5093220;28;20200;-76
2022/06/16 12:22:44;;;;;;;1.30;1.20;;;25.60;72.30;;;;;;5093434;28;20282;-76
2022/06/16 12:25:19;;;;;;;2.50;1.30;;;25.50;72.60;;;;;;5092871;28;20198;-74
2022/06/16 12:27:53;;;;;;;3.00;1.37;;;25.40;72.60;;;;;;5092962;28;20188;-76
2022/06/16 12:30:24;;;;;;;1.63;1.30;;;25.40;72.60;;;;;;5092682;28;20186;-76
2022/06/16 12:32:57;;;;;;;2.95;1.25;;;25.50;74.00;;;;;;5092511;28;20216;-77
2022/06/16 12:35:33;;;;;;;3.03;1.50;;;25.60;74.10;;;;;;5092379;28;20241;-80
2022/06/16 12:38:04;;;;;;;4.53;1.50;;;25.60;72.20;;;;;;5093707;28;20204;-78
2022/06/16 12:40:35;;;;;;;2.47;1.30;;;25.50;72.50;;;;;;5093627;28;20574;-77
2022/06/16 12:43:05;;;;;;;4.70;1.40;;;25.50;73.30;;;;;;5092844;28;20706;-77
2022/06/16 12:45:37;;;;;;;3.00;1.40;;;25.50;73.60;;;;;;5084672;28;20205;-76
2022/06/16 12:48:08;;;;;;;4.57;1.60;;;25.50;73.40;;;;;;5094137;28;20343;-78
2022/06/16 12:50:39;;;;;;;1.80;1.30;;;25.40;73.00;;;;;;5092653;28;20279;-78
2022/06/16 12:53:10;;;;;;;1.60;1.20;;;25.30;73.20;;;;;;5092444;28;20213;-78
2022/06/16 12:55:42;;;;;;;2.63;1.30;;;25.30;73.70;;;;;;5093430;28;20238;-78
2022/06/16 12:58:15;;;;;;;2.13;1.53;;;25.30;74.60;;;;;;5092931;28;20733;-78
2022/06/16 13:00:46;;;;;;;1.43;1.17;;;25.40;75.90;;;;;;5091554;28;20263;-77
2022/06/16 13:03:20;;;;;;;1.53;1.20;;;25.50;75.80;;;;;;5091056;28;20276;-76
2022/06/16 13:05:51;;;;;;;1.50;1.20;;;25.50;73.20;;;;;;5092109;28;20274;-78
2022/06/16 13:08:18;;;;;;;2.58;1.20;;;25.50;73.40;;;;;;5091703;28;20199;-77
2022/06/16 13:10:51;;;;;;;2.83;1.27;;;25.50;73.80;;;;;;5092199;28;20720;-80
2022/06/16 13:13:24;;;;;;;2.80;1.20;;;25.60;71.60;;;;;;5094020;28;20274;-80
2022/06/16 13:15:54;;;;;;;1.37;1.23;;;25.70;70.90;;;;;;5094076;28;20670;-81
2022/06/16 13:18:25;;;;;;;2.77;1.43;;;25.60;68.70;;;;;;5092198;28;20209;-78
2022/06/16 13:20:59;;;;;;;6.53;1.60;;;25.60;69.60;;;;;;5092939;28;20272;-80
2022/06/16 13:23:33;;;;;;;1.50;1.40;;;25.50;70.60;;;;;;5092627;28;20678;-79
2022/06/16 13:26:19;;;;;;;1.40;1.30;;;25.60;70.70;;;;;;5093686;28;20575;-80